Time;durP1;ratioP1;P1;durP2;ratioP2;P2;SDS_P1;SDS_P2;PMS_P1;PMS_P2;Temp;Humidity;BMP_temperature;BMP_pressure;BME280_temperature;BME280_humidity;BME280_pressure;Samples;Min_cycle;Max_cycle;Signal;HPM_P1;HPM_P2
2022/06/12 00:01:20;;;;;;;8.07;4.47;;;13.90;99.90;;;;;;10455019;28;20049;-84
2022/06/12 00:06:22;;;;;;;6.53;4.75;;;13.80;99.90;;;;;;10441495;28;20397;-84
2022/06/12 00:11:26;;;;;;;6.45;4.50;;;13.80;99.90;;;;;;10431261;28;20029;-87
2022/06/12 00:16:29;;;;;;;6.50;4.55;;;13.70;99.90;;;;;;10475339;28;20024;-88
2022/06/12 00:21:31;;;;;;;7.03;4.43;;;13.60;99.90;;;;;;10443813;28;20036;-85
2022/06/12 00:26:36;;;;;;;6.38;4.45;;;13.60;99.90;;;;;;10445558;28;20041;-84
2022/06/12 00:31:41;;;;;;;7.50;5.13;;;13.50;99.90;;;;;;10448267;28;20025;-85
2022/06/12 00:36:42;;;;;;;6.20;4.93;;;13.50;99.90;;;;;;10450533;28;20012;-85
2022/06/12 00:41:44;;;;;;;5.53;4.45;;;13.50;99.90;;;;;;10429779;28;20021;-84
2022/06/12 00:46:52;;;;;;;9.35;5.20;;;13.40;99.90;;;;;;10459426;28;20052;-87
2022/06/12 00:51:59;;;;;;;6.82;4.95;;;13.40;99.90;;;;;;10416103;28;20529;-84
2022/06/12 00:57:03;;;;;;;4.85;4.35;;;13.30;99.90;;;;;;10446008;28;20029;-85
2022/06/12 01:02:06;;;;;;;12.10;5.05;;;13.30;99.90;;;;;;10458022;28;20458;-85
2022/06/12 01:07:11;;;;;;;6.30;4.95;;;13.20;99.90;;;;;;10451534;28;20836;-84
2022/06/12 01:12:24;;;;;;;7.68;4.85;;;13.10;99.90;;;;;;10451147;28;20025;-86
2022/06/12 01:17:26;;;;;;;6.35;5.05;;;13.10;99.90;;;;;;10448525;28;20498;-84
2022/06/12 01:22:58;;;;;;;8.25;5.20;;;13.00;99.90;;;;;;10451460;28;20433;-84
2022/06/12 01:28:36;;;;;;;10.18;5.63;;;12.90;99.90;;;;;;10426503;28;20038;-85
2022/06/12 01:34:18;;;;;;;8.38;5.53;;;12.90;99.90;;;;;;10455411;28;20065;-85
2022/06/12 01:39:38;;;;;;;8.02;5.63;;;12.80;99.90;;;;;;10444038;28;20206;-86
2022/06/12 01:45:11;;;;;;;13.02;8.93;;;12.70;99.90;;;;;;10451542;28;20499;-85
2022/06/12 01:50:41;;;;;;;13.95;8.02;;;12.70;99.90;;;;;;10449825;28;20063;-85
2022/06/12 01:56:01;;;;;;;9.85;7.75;;;12.60;99.90;;;;;;10426589;28;20139;-84
2022/06/12 02:01:09;;;;;;;11.95;8.20;;;12.60;99.90;;;;;;10449159;28;20080;-84
2022/06/12 02:06:17;;;;;;;13.25;8.80;;;12.40;99.90;;;;;;10448677;28;20094;-85
2022/06/12 02:16:50;;;;;;;12.98;9.77;;;12.20;99.90;;;;;;10462926;28;20040;-85
2022/06/12 02:22:09;;;;;;;13.95;10.25;;;12.20;99.90;;;;;;10449371;28;20029;-84
2022/06/12 02:27:16;;;;;;;22.27;14.57;;;12.20;99.90;;;;;;10449835;28;20045;-85
2022/06/12 02:32:25;;;;;;;19.75;14.23;;;12.20;99.90;;;;;;10441605;28;20567;-85
2022/06/12 02:37:34;;;;;;;21.10;14.88;;;12.30;99.90;;;;;;10447945;28;20044;-84
2022/06/12 02:42:42;;;;;;;17.98;14.00;;;12.40;99.90;;;;;;10448268;28;20547;-84
2022/06/12 02:47:45;;;;;;;19.27;15.60;;;12.40;99.90;;;;;;10446745;28;20045;-86
2022/06/12 02:52:55;;;;;;;19.98;14.27;;;12.50;99.90;;;;;;10445661;28;20515;-84
2022/06/12 02:58:08;;;;;;;18.27;15.13;;;12.50;99.90;;;;;;10449749;28;20048;-85
2022/06/12 03:03:12;;;;;;;17.40;12.45;;;12.50;99.90;;;;;;10454215;28;20029;-86
2022/06/12 03:08:16;;;;;;;14.05;11.07;;;12.40;99.90;;;;;;10453558;28;20033;-85
2022/06/12 03:13:19;;;;;;;19.10;14.57;;;12.40;99.90;;;;;;10448395;28;20028;-85
2022/06/12 03:18:32;;;;;;;18.73;14.35;;;12.50;99.90;;;;;;10442824;28;20064;-85
2022/06/12 03:23:55;;;;;;;20.52;14.18;;;12.60;99.90;;;;;;10436958;28;20029;-87
2022/06/12 03:29:17;;;;;;;21.73;17.45;;;12.70;99.90;;;;;;10445362;28;20128;-85
2022/06/12 03:34:42;;;;;;;21.10;16.65;;;12.80;99.90;;;;;;10443471;28;20031;-85
2022/06/12 03:39:47;;;;;;;20.85;16.70;;;12.80;99.90;;;;;;10444285;28;20037;-86
2022/06/12 03:45:07;;;;;;;22.40;15.93;;;12.90;99.90;;;;;;10477411;28;20079;-87
2022/06/12 03:50:23;;;;;;;20.02;15.45;;;13.00;99.90;;;;;;10453094;28;20267;-87
2022/06/12 04:00:54;;;;;;;18.52;13.73;;;13.00;99.90;;;;;;10446632;28;20061;-87
2022/06/12 04:21:22;;;;;;;18.30;14.48;;;13.10;99.90;;;;;;10473941;27;20407;-85
2022/06/12 04:26:32;;;;;;;20.60;14.88;;;14.30;99.90;;;;;;10450934;28;20068;-87
2022/06/12 04:31:34;;;;;;;16.70;13.30;;;14.30;99.90;;;;;;10461649;28;20033;-84
2022/06/12 04:36:35;;;;;;;14.52;11.60;;;14.40;99.90;;;;;;10454592;28;20021;-88
2022/06/12 04:41:36;;;;;;;17.77;14.25;;;14.50;99.90;;;;;;10463841;28;20443;-84
2022/06/12 04:46:39;;;;;;;18.45;13.35;;;14.60;99.90;;;;;;10467565;28;20032;-84
2022/06/12 04:51:40;;;;;;;18.25;13.77;;;14.70;99.90;;;;;;10455649;28;20064;-88
2022/06/12 04:56:42;;;;;;;16.30;12.93;;;14.90;99.90;;;;;;10440671;28;20114;-84
2022/06/12 05:01:42;;;;;;;16.38;12.93;;;15.10;99.90;;;;;;10499558;23;20060;-85
2022/06/12 05:06:44;;;;;;;17.63;12.95;;;15.30;99.90;;;;;;10433313;28;20042;-85
2022/06/12 05:11:45;;;;;;;16.10;12.65;;;15.50;99.90;;;;;;10404681;28;20025;-85
2022/06/12 05:16:50;;;;;;;15.70;12.73;;;15.70;99.90;;;;;;10424963;28;20416;-85
2022/06/12 05:21:52;;;;;;;15.68;12.68;;;16.00;99.90;;;;;;10391078;28;20026;-86
2022/06/12 05:26:54;;;;;;;12.82;11.32;;;16.20;99.90;;;;;;10401352;28;20117;-86
2022/06/12 05:31:56;;;;;;;12.95;10.95;;;16.40;99.90;;;;;;10376301;28;20071;-85
2022/06/12 05:36:57;;;;;;;11.80;8.38;;;16.60;99.90;;;;;;10377735;28;20046;-85
2022/06/12 05:41:58;;;;;;;12.88;7.68;;;16.80;99.90;;;;;;10381767;28;20099;-85
2022/06/12 05:46:59;;;;;;;12.00;7.05;;;17.10;99.90;;;;;;10383807;28;20034;-86
2022/06/12 05:52:00;;;;;;;7.35;6.60;;;17.50;99.90;;;;;;10378980;28;20020;-85
2022/06/12 05:57:00;;;;;;;8.93;7.45;;;17.70;99.90;;;;;;10394573;28;20535;-86
2022/06/12 06:02:01;;;;;;;13.25;9.00;;;17.90;99.90;;;;;;10389125;28;20054;-85
2022/06/12 06:07:02;;;;;;;10.38;8.85;;;18.20;99.90;;;;;;10390713;28;20042;-84
2022/06/12 06:12:03;;;;;;;10.82;9.15;;;18.50;99.90;;;;;;10385886;28;20431;-87
2022/06/12 06:17:04;;;;;;;11.43;7.57;;;18.80;99.90;;;;;;10384526;28;20029;-85
2022/06/12 06:22:05;;;;;;;9.70;7.10;;;19.00;99.90;;;;;;10378486;28;20041;-85
2022/06/12 06:27:05;;;;;;;8.73;7.60;;;19.30;99.90;;;;;;10405458;28;20033;-84
2022/06/12 06:32:08;;;;;;;9.18;6.72;;;19.50;99.90;;;;;;10375159;28;20132;-87
2022/06/12 06:37:12;;;;;;;9.80;6.75;;;19.60;99.90;;;;;;10390158;28;20043;-87
2022/06/12 06:42:12;;;;;;;7.18;6.13;;;19.80;99.90;;;;;;10379578;28;20046;-88
2022/06/12 06:47:13;;;;;;;10.43;4.70;;;20.00;99.90;;;;;;10384693;28;20055;-85
2022/06/12 06:52:14;;;;;;;9.27;4.82;;;20.60;99.90;;;;;;10387615;28;20112;-86
2022/06/12 06:57:15;;;;;;;4.40;3.10;;;22.50;99.90;;;;;;10383129;28;20076;-85
2022/06/12 07:02:15;;;;;;;4.03;2.53;;;24.20;93.70;;;;;;10386256;28;20041;-84
2022/06/12 07:07:16;;;;;;;3.33;2.70;;;25.60;87.50;;;;;;10374646;28;20107;-84
2022/06/12 07:12:17;;;;;;;4.65;2.67;;;26.60;83.70;;;;;;10380610;28;20025;-84
2022/06/12 07:17:17;;;;;;;6.32;2.90;;;26.90;75.00;;;;;;10380211;28;20077;-85
2022/06/12 07:22:18;;;;;;;3.67;2.25;;;27.20;75.00;;;;;;10378283;28;20025;-83
2022/06/12 07:27:19;;;;;;;4.85;2.10;;;27.60;75.60;;;;;;10381133;28;20634;-83
2022/06/12 07:32:19;;;;;;;4.07;1.60;;;28.30;69.50;;;;;;10394766;28;20091;-84
2022/06/12 07:37:21;;;;;;;2.92;1.77;;;28.40;65.90;;;;;;10375575;28;20081;-84
2022/06/12 07:42:22;;;;;;;3.13;1.90;;;28.30;69.00;;;;;;10394678;28;20083;-84
2022/06/12 07:47:24;;;;;;;2.80;1.90;;;28.30;64.30;;;;;;10375752;28;20425;-85
2022/06/12 07:52:26;;;;;;;3.85;2.33;;;28.00;65.40;;;;;;10389373;28;20033;-82
2022/06/12 07:57:27;;;;;;;4.30;2.10;;;27.30;64.70;;;;;;10388295;28;20030;-86
2022/06/12 08:02:28;;;;;;;5.20;2.22;;;26.80;69.60;;;;;;10390510;28;20045;-88
2022/06/12 08:07:29;;;;;;;3.47;2.33;;;26.60;69.80;;;;;;10390658;28;20025;-83
2022/06/12 08:12:32;;;;;;;3.70;2.38;;;26.10;71.00;;;;;;10380055;28;20481;-83
2022/06/12 08:17:33;;;;;;;2.67;2.00;;;25.90;67.90;;;;;;10384134;28;20116;-85
2022/06/12 08:22:34;;;;;;;3.83;1.85;;;25.90;69.70;;;;;;10384812;28;20493;-84
2022/06/12 08:27:36;;;;;;;3.45;2.05;;;25.80;70.80;;;;;;10385992;28;20018;-83
2022/06/12 08:32:37;;;;;;;4.10;2.30;;;26.00;71.10;;;;;;10383334;28;20006;-83
2022/06/12 08:37:40;;;;;;;5.80;2.28;;;26.30;69.60;;;;;;10391516;28;20060;-81
2022/06/12 08:43:10;;;;;;;3.60;2.13;;;26.30;72.10;;;;;;10379367;28;20025;-82
2022/06/12 08:48:29;;;;;;;3.15;2.10;;;26.40;71.10;;;;;;10356733;28;20049;-84
2022/06/12 08:53:43;;;;;;;2.08;1.88;;;26.50;70.60;;;;;;10380731;28;20057;-85
2022/06/12 08:59:15;;;;;;;2.85;2.15;;;26.40;70.80;;;;;;10388105;28;20070;-82
2022/06/12 09:04:19;;;;;;;3.67;2.30;;;26.70;74.50;;;;;;10386710;28;20128;-82
2022/06/12 09:09:25;;;;;;;3.10;2.28;;;26.70;70.90;;;;;;10373244;28;20034;-82
2022/06/12 09:14:34;;;;;;;3.85;2.50;;;26.90;69.40;;;;;;10382697;28;20101;-82
2022/06/12 09:19:50;;;;;;;4.07;2.28;;;26.80;69.70;;;;;;10376294;28;20139;-87
2022/06/12 09:25:07;;;;;;;2.90;1.92;;;27.10;69.90;;;;;;10387297;28;20669;-84
2022/06/12 09:30:16;;;;;;;3.55;2.17;;;27.40;72.70;;;;;;10387348;28;20109;-83
2022/06/12 09:35:41;;;;;;;3.92;2.40;;;27.50;68.90;;;;;;10388698;28;20021;-84
2022/06/12 09:40:57;;;;;;;2.40;2.20;;;27.60;65.70;;;;;;10403905;28;20029;-82
2022/06/12 09:46:09;;;;;;;4.93;2.10;;;27.00;65.50;;;;;;10397020;28;20026;-83
2022/06/12 09:51:14;;;;;;;3.25;2.15;;;26.40;68.60;;;;;;10389789;28;20029;-86
2022/06/12 09:56:54;;;;;;;4.70;2.30;;;26.20;70.20;;;;;;10382570;28;20029;-82
2022/06/12 10:01:59;;;;;;;4.53;2.28;;;26.80;71.00;;;;;;10393062;28;20095;-83
2022/06/12 10:07:09;;;;;;;5.65;2.35;;;27.60;71.80;;;;;;10389094;28;20534;-83
2022/06/12 10:12:15;;;;;;;3.10;2.40;;;28.20;65.20;;;;;;10379524;28;20377;-84
2022/06/12 10:17:41;;;;;;;3.10;1.90;;;27.90;66.10;;;;;;10377697;28;20065;-83
2022/06/12 10:22:45;;;;;;;5.70;2.33;;;28.20;67.40;;;;;;10389705;28;20111;-87
2022/06/12 10:27:54;;;;;;;2.20;1.95;;;28.50;66.10;;;;;;10394656;28;20021;-86
2022/06/12 10:32:57;;;;;;;4.80;2.40;;;28.70;65.70;;;;;;10378528;28;20028;-84
2022/06/12 10:38:06;;;;;;;4.10;2.38;;;28.60;64.10;;;;;;10380022;28;20034;-84
2022/06/12 10:43:24;;;;;;;5.40;2.50;;;28.50;63.70;;;;;;10395399;28;20026;-87
2022/06/12 10:48:30;;;;;;;5.30;2.47;;;28.10;62.60;;;;;;10385041;28;20079;-85
2022/06/12 10:53:33;;;;;;;3.08;2.47;;;26.90;63.00;;;;;;10378344;28;20023;-85
2022/06/12 10:58:58;;;;;;;4.22;2.75;;;26.40;67.30;;;;;;10386856;28;20473;-83
2022/06/12 11:04:17;;;;;;;5.10;2.53;;;26.10;67.90;;;;;;10375090;28;20824;-86
2022/06/12 11:09:29;;;;;;;2.42;2.13;;;26.20;70.30;;;;;;10374421;28;20069;-83
2022/06/12 11:14:55;;;;;;;4.45;2.55;;;26.10;70.90;;;;;;10379064;28;20519;-87
2022/06/12 11:20:23;;;;;;;2.95;2.45;;;25.90;70.20;;;;;;10373135;28;20671;-86
2022/06/12 11:25:49;;;;;;;4.57;2.50;;;25.90;72.30;;;;;;10375882;28;20106;-84
2022/06/12 11:31:23;;;;;;;2.90;2.45;;;25.70;72.30;;;;;;10382087;28;20013;-85
2022/06/12 11:36:31;;;;;;;4.07;2.33;;;26.10;73.30;;;;;;10375815;28;20555;-86
2022/06/12 11:41:53;;;;;;;3.38;2.60;;;27.20;72.50;;;;;;10372579;28;20033;-85
2022/06/12 11:47:02;;;;;;;4.28;2.67;;;28.10;66.10;;;;;;10378134;28;20476;-82
2022/06/12 11:52:25;;;;;;;3.13;2.85;;;27.50;64.30;;;;;;10366356;28;20088;-83
2022/06/12 11:58:04;;;;;;;5.10;4.30;;;27.10;68.30;;;;;;10387727;28;20045;-83
2022/06/12 12:03:29;;;;;;;6.47;3.78;;;26.90;69.50;;;;;;10364352;28;20045;-81
2022/06/12 12:08:54;;;;;;;6.28;3.00;;;26.70;69.80;;;;;;10373193;28;20022;-84
2022/06/12 12:13:59;;;;;;;4.13;3.75;;;26.50;68.70;;;;;;10379082;28;20042;-84
2022/06/12 12:19:21;;;;;;;3.42;2.97;;;26.30;71.10;;;;;;10375874;28;20042;-84
2022/06/12 12:24:31;;;;;;;3.67;3.17;;;26.30;72.70;;;;;;10384260;28;20066;-82
2022/06/12 12:29:37;;;;;;;4.68;3.17;;;26.20;73.60;;;;;;10385766;28;20050;-83
2022/06/12 12:34:39;;;;;;;6.80;3.22;;;26.00;73.90;;;;;;10384198;28;20083;-83
2022/06/12 12:45:13;;;;;;;6.25;3.80;;;25.90;74.40;;;;;;10385800;28;20432;-85
2022/06/12 12:50:17;;;;;;;5.78;3.50;;;25.90;75.40;;;;;;10395705;28;20041;-84
2022/06/12 12:55:27;;;;;;;5.50;3.08;;;26.80;75.10;;;;;;10401268;28;20021;-84
2022/06/12 13:00:35;;;;;;;8.57;3.92;;;27.60;71.70;;;;;;10393607;28;20034;-82
2022/06/12 13:05:58;;;;;;;7.28;3.90;;;27.20;70.80;;;;;;10382253;28;20763;-83
2022/06/12 13:11:29;;;;;;;4.28;3.88;;;26.60;72.00;;;;;;10388513;28;20022;-84
2022/06/12 13:16:54;;;;;;;4.40;3.65;;;26.60;72.30;;;;;;10383531;28;20041;-83
2022/06/12 13:22:06;;;;;;;5.55;3.70;;;27.00;69.70;;;;;;10386990;28;20030;-82
2022/06/12 13:27:17;;;;;;;5.10;3.72;;;27.60;71.20;;;;;;10373781;28;20609;-83
2022/06/12 13:32:23;;;;;;;5.75;4.05;;;27.90;67.60;;;;;;10383614;28;20020;-82
2022/06/12 13:37:26;;;;;;;4.05;3.67;;;27.90;63.90;;;;;;10379087;28;20165;-85
2022/06/12 13:42:29;;;;;;;4.63;3.58;;;27.90;66.40;;;;;;10371692;28;20493;-85
2022/06/12 13:47:33;;;;;;;5.00;3.00;;;27.70;62.60;;;;;;10381408;28;20079;-84
2022/06/12 13:52:52;;;;;;;4.13;3.00;;;27.40;62.80;;;;;;10385884;28;20017;-83
2022/06/12 13:57:58;;;;;;;3.95;2.58;;;27.50;65.00;;;;;;10386560;28;20026;-83
2022/06/12 14:02:59;;;;;;;4.97;3.00;;;27.30;66.80;;;;;;10374029;28;20168;-83
2022/06/12 14:08:03;;;;;;;4.50;3.30;;;27.00;67.90;;;;;;10379361;28;20037;-83
2022/06/12 14:13:13;;;;;;;5.10;2.93;;;26.80;67.80;;;;;;10376446;28;20090;-83
2022/06/12 14:18:29;;;;;;;4.00;3.30;;;26.60;68.70;;;;;;10379800;28;20041;-84
2022/06/12 14:23:35;;;;;;;6.10;3.95;;;26.40;69.50;;;;;;10380347;28;20022;-83
2022/06/12 14:28:36;;;;;;;5.55;4.28;;;26.20;72.00;;;;;;10377536;28;20049;-84
2022/06/12 14:34:18;;;;;;;4.13;3.63;;;26.00;70.00;;;;;;10386891;28;20017;-83
2022/06/12 14:39:23;;;;;;;4.22;3.47;;;25.80;69.50;;;;;;10377581;28;20038;-84
2022/06/12 14:44:24;;;;;;;;;;;25.80;74.30;;;;;;10387511;28;20029;-87
2022/06/12 14:49:25;;;;;;;6.65;4.05;;;25.70;74.40;;;;;;10388024;28;20284;-85
2022/06/12 14:54:25;;;;;;;5.88;3.95;;;25.80;73.10;;;;;;10381281;28;20080;-84
2022/06/12 14:59:28;;;;;;;6.53;4.25;;;26.00;72.20;;;;;;10388885;28;20608;-84
2022/06/12 15:04:29;;;;;;;4.55;3.92;;;26.00;74.10;;;;;;10369379;28;20515;-83
2022/06/12 15:09:30;;;;;;;4.80;3.63;;;26.20;75.40;;;;;;10380513;28;20033;-86
2022/06/12 15:14:31;;;;;;;5.07;3.80;;;26.20;70.00;;;;;;10378116;28;20471;-84
2022/06/12 15:19:32;;;;;;;3.92;3.50;;;25.90;69.30;;;;;;10397249;28;20030;-86
2022/06/12 15:24:33;;;;;;;5.55;2.85;;;25.70;70.10;;;;;;10372750;28;20034;-83
2022/06/12 15:29:46;;;;;;;3.58;3.03;;;25.60;69.20;;;;;;10367034;28;20472;-83
2022/06/12 15:34:48;;;;;;;4.78;3.08;;;25.50;67.00;;;;;;10389641;28;20516;-85
2022/06/12 15:39:50;;;;;;;4.18;3.55;;;25.30;67.80;;;;;;10371090;28;20350;-83
2022/06/12 15:44:51;;;;;;;4.03;3.28;;;25.20;69.40;;;;;;10365415;28;20040;-84
2022/06/12 15:49:51;;;;;;;4.03;3.63;;;25.20;68.90;;;;;;10386175;28;20060;-83
2022/06/12 15:54:52;;;;;;;4.15;3.10;;;25.10;68.90;;;;;;10374963;28;20353;-83
2022/06/12 15:59:52;;;;;;;4.15;3.47;;;25.00;67.30;;;;;;10383674;28;20033;-86
2022/06/12 16:04:55;;;;;;;3.58;3.17;;;25.00;69.80;;;;;;10384328;28;20050;-86
2022/06/12 16:09:55;;;;;;;3.88;2.90;;;24.90;68.80;;;;;;10373401;28;20021;-83
2022/06/12 16:14:56;;;;;;;3.85;2.97;;;24.90;66.90;;;;;;10381748;28;20086;-84
2022/06/12 16:19:57;;;;;;;3.90;2.92;;;24.80;67.20;;;;;;10370973;28;20363;-85
2022/06/12 16:24:57;;;;;;;4.20;2.80;;;24.80;67.20;;;;;;10405890;23;20049;-83
2022/06/12 16:29:58;;;;;;;3.63;2.80;;;24.70;68.50;;;;;;10370655;28;20025;-83
2022/06/12 16:34:59;;;;;;;5.35;3.53;;;24.60;69.90;;;;;;10373095;28;20010;-82
2022/06/12 16:39:59;;;;;;;4.82;2.70;;;24.50;68.70;;;;;;10385354;28;20053;-84
2022/06/12 16:45:00;;;;;;;5.15;2.88;;;24.40;71.10;;;;;;10389232;28;20108;-83
2022/06/12 16:50:01;;;;;;;3.55;2.85;;;24.30;69.00;;;;;;10397281;28;20048;-81
2022/06/12 16:55:04;;;;;;;3.80;3.45;;;24.20;74.90;;;;;;10378535;28;20018;-82
2022/06/12 17:00:07;;;;;;;3.13;2.58;;;24.00;76.40;;;;;;10362446;28;20091;-86
2022/06/12 17:05:10;;;;;;;5.38;3.20;;;23.80;76.10;;;;;;10376760;28;20034;-85
2022/06/12 17:10:15;;;;;;;3.78;3.35;;;23.60;76.60;;;;;;10379131;28;20029;-82
2022/06/12 17:15:17;;;;;;;4.22;3.42;;;23.40;78.30;;;;;;10376256;28;20074;-85
2022/06/12 17:25:37;;;;;;;3.50;3.20;;;22.90;79.80;;;;;;10380995;28;20054;-83
2022/06/12 17:30:38;;;;;;;6.32;4.15;;;22.70;81.00;;;;;;10385192;28;20029;-86
2022/06/12 17:35:41;;;;;;;5.43;3.55;;;22.50;83.00;;;;;;10387091;28;20025;-81
2022/06/12 17:40:41;;;;;;;4.03;3.53;;;22.20;84.50;;;;;;10386675;28;20030;-85
2022/06/12 17:45:42;;;;;;;5.72;3.67;;;22.00;85.50;;;;;;10380893;28;20030;-82
2022/06/12 17:50:43;;;;;;;4.20;3.63;;;21.80;85.40;;;;;;10391443;28;20445;-85
2022/06/12 17:55:46;;;;;;;6.90;3.60;;;21.60;85.30;;;;;;10388746;28;20108;-82
2022/06/12 18:00:47;;;;;;;4.03;3.33;;;21.40;84.90;;;;;;10376795;28;20022;-84
2022/06/12 18:05:47;;;;;;;5.80;3.90;;;21.10;85.80;;;;;;10389506;28;20029;-84
2022/06/12 18:10:48;;;;;;;5.03;4.00;;;21.00;87.60;;;;;;10375468;28;20067;-82
2022/06/12 18:21:08;;;;;;;9.68;5.35;;;20.50;87.40;;;;;;10393826;28;20053;-86
2022/06/12 18:26:09;;;;;;;10.27;5.85;;;20.30;88.30;;;;;;10384062;28;20018;-84
2022/06/12 18:31:10;;;;;;;10.55;6.85;;;20.00;89.60;;;;;;10377426;28;20037;-86
2022/06/12 18:36:11;;;;;;;9.95;5.57;;;19.90;90.40;;;;;;10386499;28;20112;-82
2022/06/12 18:41:12;;;;;;;7.63;5.15;;;19.70;90.30;;;;;;10401788;28;20059;-82
2022/06/12 18:46:14;;;;;;;8.80;5.40;;;19.60;91.00;;;;;;10378839;28;20496;-83
2022/06/12 18:51:15;;;;;;;6.13;4.40;;;19.40;91.40;;;;;;10395182;28;20129;-82
2022/06/12 18:56:16;;;;;;;5.90;4.88;;;19.20;91.20;;;;;;10373996;28;20034;-82
2022/06/12 19:01:17;;;;;;;9.82;5.97;;;19.10;91.70;;;;;;10374211;28;20041;-86
2022/06/12 19:06:18;;;;;;;8.45;5.32;;;18.90;92.40;;;;;;10371626;28;20464;-82
2022/06/12 19:11:36;;;;;;;6.75;5.55;;;18.80;92.90;;;;;;10368425;28;20124;-82
2022/06/12 19:16:37;;;;;;;8.43;6.88;;;18.70;93.40;;;;;;10371932;28;20431;-84
2022/06/12 19:21:38;;;;;;;12.63;6.65;;;18.50;96.00;;;;;;10383947;28;20057;-86
2022/06/12 19:26:40;;;;;;;8.30;6.28;;;18.40;96.90;;;;;;10366518;28;20026;-86
2022/06/12 19:31:41;;;;;;;14.45;8.25;;;18.40;98.10;;;;;;10371720;28;20030;-85
2022/06/12 19:36:45;;;;;;;10.77;8.18;;;18.40;99.50;;;;;;10389774;28;20773;-84
2022/06/12 19:41:54;;;;;;;11.27;7.77;;;18.20;99.90;;;;;;10388962;28;20025;-85
2022/06/12 19:47:00;;;;;;;17.65;10.18;;;18.10;99.90;;;;;;10384765;28;20022;-85
2022/06/12 19:52:01;;;;;;;30.30;14.98;;;18.10;99.90;;;;;;10382528;28;20022;-84
2022/06/12 19:57:02;;;;;;;22.80;13.68;;;18.00;99.90;;;;;;10387812;28;20030;-83
2022/06/12 20:02:03;;;;;;;26.15;14.45;;;18.00;99.90;;;;;;10398024;28;20388;-83
2022/06/12 20:12:24;;;;;;;26.33;14.40;;;18.10;99.90;;;;;;10374679;28;20033;-84
2022/06/12 20:17:26;;;;;;;26.02;15.63;;;18.00;99.90;;;;;;10390106;28;20124;-83
2022/06/12 20:22:27;;;;;;;23.23;13.25;;;18.00;99.90;;;;;;10394568;28;20053;-83
2022/06/12 20:27:28;;;;;;;31.05;15.90;;;17.90;99.90;;;;;;10372775;28;20041;-85
2022/06/12 20:32:29;;;;;;;31.35;17.83;;;17.90;99.90;;;;;;10369736;28;20113;-83
2022/06/12 20:37:30;;;;;;;29.13;16.08;;;17.80;99.90;;;;;;10368475;28;20495;-88
2022/06/12 20:42:30;;;;;;;19.60;13.63;;;17.80;99.90;;;;;;10378594;28;20025;-88
2022/06/12 20:47:31;;;;;;;21.50;12.95;;;17.80;99.90;;;;;;10370044;28;20033;-84
2022/06/12 20:52:32;;;;;;;19.33;12.07;;;17.70;99.90;;;;;;10389892;28;20037;-87
2022/06/12 20:57:32;;;;;;;17.85;11.75;;;17.70;99.90;;;;;;10385317;28;20038;-84
2022/06/12 21:02:33;;;;;;;15.90;11.68;;;17.70;99.90;;;;;;10406636;28;20663;-84
2022/06/12 21:07:34;;;;;;;17.95;11.88;;;17.60;99.90;;;;;;10383818;28;20079;-88
2022/06/12 21:12:35;;;;;;;16.08;11.85;;;17.50;99.90;;;;;;10398623;28;20156;-87
2022/06/12 21:17:35;;;;;;;14.50;10.80;;;17.50;99.90;;;;;;10390518;28;20040;-85
2022/06/12 21:22:36;;;;;;;17.67;12.50;;;17.50;99.90;;;;;;10373143;28;20056;-84
2022/06/12 21:27:37;;;;;;;16.65;11.75;;;17.50;99.90;;;;;;10377227;28;20025;-87
2022/06/12 21:32:39;;;;;;;16.80;10.77;;;17.40;99.90;;;;;;10401822;28;20487;-84
2022/06/12 21:37:40;;;;;;;15.13;11.27;;;17.30;99.90;;;;;;10385526;28;20137;-86
2022/06/12 21:42:41;;;;;;;19.10;11.80;;;17.30;99.90;;;;;;10380799;28;20018;-87
2022/06/12 21:47:42;;;;;;;15.23;11.70;;;17.20;99.90;;;;;;10395181;28;20018;-86
2022/06/12 21:58:10;;;;;;;15.73;11.80;;;17.00;99.90;;;;;;10368503;28;20042;-86
2022/06/12 22:03:11;;;;;;;14.88;12.05;;;16.90;99.90;;;;;;10379997;28;20464;-86
2022/06/12 22:08:12;;;;;;;19.58;13.63;;;16.90;99.90;;;;;;10383317;28;20037;-87
2022/06/12 22:13:12;;;;;;;19.05;14.95;;;16.90;99.90;;;;;;10380792;28;20022;-86
2022/06/12 22:18:13;;;;;;;20.60;14.65;;;16.80;99.90;;;;;;10381405;28;20053;-83
2022/06/12 22:23:13;;;;;;;19.42;14.15;;;16.70;99.90;;;;;;10378322;28;20126;-86
2022/06/12 22:28:15;;;;;;;19.20;13.15;;;16.70;99.90;;;;;;10373393;28;20038;-84
2022/06/12 22:33:16;;;;;;;19.70;13.93;;;16.70;99.90;;;;;;10389096;28;20026;-85
2022/06/12 22:38:16;;;;;;;18.48;12.98;;;16.70;99.90;;;;;;10369516;28;20467;-84
2022/06/12 22:43:17;;;;;;;19.67;15.02;;;16.60;99.90;;;;;;10393049;28;20036;-86
2022/06/12 22:48:17;;;;;;;19.38;15.50;;;16.50;99.90;;;;;;10387318;28;20080;-84
2022/06/12 22:53:18;;;;;;;18.90;15.30;;;16.50;99.90;;;;;;10408956;23;20489;-88
2022/06/12 22:58:19;;;;;;;22.95;15.88;;;16.40;99.90;;;;;;10402710;28;20053;-85
2022/06/12 23:03:20;;;;;;;23.40;17.67;;;16.30;99.90;;;;;;10402601;28;20031;-85
2022/06/12 23:08:21;;;;;;;20.25;16.33;;;16.20;99.90;;;;;;10393598;28;20353;-85
2022/06/12 23:13:22;;;;;;;19.92;16.48;;;16.10;99.90;;;;;;10368301;28;20045;-87
2022/06/12 23:18:23;;;;;;;20.73;16.85;;;16.10;99.90;;;;;;10373938;28;20044;-85
2022/06/12 23:23:29;;;;;;;23.10;17.80;;;16.00;99.90;;;;;;10378780;28;20482;-86
2022/06/12 23:28:36;;;;;;;23.45;17.73;;;16.00;99.90;;;;;;10381208;28;20032;-85
2022/06/12 23:33:37;;;;;;;23.88;18.00;;;16.00;99.90;;;;;;10380526;28;20409;-85
2022/06/12 23:38:38;;;;;;;21.70;17.13;;;15.90;99.90;;;;;;10377091;28;20088;-84
2022/06/12 23:43:41;;;;;;;20.90;16.65;;;15.90;99.90;;;;;;10378063;28;20033;-86
2022/06/12 23:48:42;;;;;;;21.73;16.95;;;15.80;99.90;;;;;;10404742;28;20108;-84
2022/06/12 23:53:43;;;;;;;23.60;16.83;;;15.80;99.90;;;;;;10369035;28;20056;-84
2022/06/12 23:58:44;;;;;;;19.38;16.00;;;15.80;99.90;;;;;;10371251;28;20030;-85
